Time;durP1;ratioP1;P1;durP2;ratioP2;P2;SDS_P1;SDS_P2;PMS_P1;PMS_P2;Temp;Humidity;BMP_temperature;BMP_pressure;BME280_temperature;BME280_humidity;BME280_pressure;Samples;Min_cycle;Max_cycle;Signal;HPM_P1;HPM_P2
2022/10/28 00:01:24;;;;;;;;;;;14.40;99.90;;;;;;5077469;28;20356;-90
2022/10/28 00:03:54;;;;;;;;;;;14.20;99.90;;;;;;5075902;28;20418;-90
2022/10/28 00:06:22;;;;;;;;;;;14.30;99.90;;;;;;5073959;28;20379;-92
2022/10/28 00:08:52;;;;;;;;;;;14.20;99.90;;;;;;5076710;28;20003;-91
2022/10/28 00:11:28;;;;;;;;;;;14.60;99.90;;;;;;5080748;28;19924;-91
2022/10/28 00:13:55;;;;;;;;;;;14.30;99.90;;;;;;5072134;28;19925;-90
2022/10/28 00:16:22;;;;;;;;;;;14.30;99.90;;;;;;5084017;28;19928;-90
2022/10/28 00:18:52;;;;;;;;;;;14.20;99.90;;;;;;5078669;28;19924;-90
2022/10/28 00:21:19;;;;;;;;;;;13.40;99.90;;;;;;5078199;28;19931;-90
2022/10/28 00:23:45;;;;;;;;;;;14.40;99.90;;;;;;5084116;28;19924;-90
2022/10/28 00:26:12;;;;;;;;;;;14.50;99.90;;;;;;5080609;28;19973;-90
2022/10/28 00:28:42;;;;;;;;;;;14.30;99.90;;;;;;5074163;28;19924;-90
2022/10/28 00:31:10;;;;;;;;;;;14.30;99.90;;;;;;5090980;28;20424;-90
2022/10/28 00:33:36;;;;;;;;;;;14.50;99.90;;;;;;5087989;28;20474;-90
2022/10/28 00:36:15;;;;;;;;;;;14.40;99.90;;;;;;5087117;28;19924;-90
2022/10/28 00:38:42;;;;;;;;;;;14.50;99.90;;;;;;5097716;28;20015;-91
2022/10/28 00:41:08;;;;;;;;;;;14.30;99.90;;;;;;5081820;28;19924;-89
2022/10/28 00:43:40;;;;;;;;;;;14.50;99.90;;;;;;5075770;28;19925;-90
2022/10/28 00:46:17;;;;;;;;;;;14.50;99.90;;;;;;5079369;28;19928;-90
2022/10/28 00:48:44;;;;;;;;;;;14.50;99.90;;;;;;5074754;28;19983;-91
2022/10/28 00:51:10;;;;;;;;;;;15.30;99.90;;;;;;5098480;28;20451;-90
2022/10/28 00:53:37;;;;;;;;;;;14.50;99.90;;;;;;5062572;28;20010;-90
2022/10/28 00:56:05;;;;;;;;;;;14.40;99.90;;;;;;5077893;28;19928;-90
2022/10/28 00:58:31;;;;;;;;;;;14.50;99.90;;;;;;5073092;28;20287;-91
2022/10/28 01:00:56;;;;;;;;;;;14.50;99.90;;;;;;5077033;28;19925;-90
2022/10/28 01:03:22;;;;;;;;;;;14.50;99.90;;;;;;5059904;28;19931;-90
2022/10/28 01:05:51;;;;;;;;;;;14.50;99.90;;;;;;5056917;28;19924;-90
2022/10/28 01:08:16;;;;;;;;;;;15.70;99.90;;;;;;5085596;28;19932;-90
2022/10/28 01:10:51;;;;;;;;;;;14.50;99.90;;;;;;5062941;28;19930;-91
2022/10/28 01:13:20;;;;;;;;;;;14.50;99.90;;;;;;5090709;28;20292;-90
2022/10/28 01:15:53;;;;;;;;;;;14.50;99.90;;;;;;5077553;28;19924;-90
2022/10/28 01:18:34;;;;;;;;;;;14.70;99.90;;;;;;5090039;28;19946;-90
2022/10/28 01:21:02;;;;;;;;;;;14.50;99.90;;;;;;5090081;28;19963;-90
2022/10/28 01:23:47;;;;;;;;;;;14.60;99.90;;;;;;5085193;28;19924;-90
2022/10/28 01:26:35;;;;;;;;;;;14.50;99.90;;;;;;5091239;28;19928;-90
2022/10/28 01:29:19;;;;;;;;;;;14.50;99.90;;;;;;5077687;28;19935;-90
2022/10/28 01:32:04;;;;;;;;;;;14.50;99.90;;;;;;5071343;28;20381;-90
2022/10/28 01:34:32;;;;;;;;;;;14.40;99.90;;;;;;5069432;28;19929;-90
2022/10/28 01:37:10;;;;;;;;;;;14.40;99.90;;;;;;5091720;28;19924;-89
2022/10/28 01:39:45;;;;;;;;;;;14.40;99.90;;;;;;5080656;28;19931;-91
2022/10/28 01:42:12;;;;;;;;;;;14.40;99.90;;;;;;5071396;28;20048;-90
2022/10/28 01:44:51;;;;;;;;;;;14.40;99.90;;;;;;5076008;28;19924;-90
2022/10/28 01:47:35;;;;;;;;;;;14.30;99.90;;;;;;5093941;28;20383;-90
2022/10/28 01:50:04;;;;;;;;;;;14.20;99.90;;;;;;5089437;28;19928;-90
2022/10/28 01:52:33;;;;;;;;;;;14.20;99.90;;;;;;5074784;28;19932;-90
2022/10/28 01:55:02;;;;;;;;;;;14.10;99.90;;;;;;5084047;28;19988;-90
2022/10/28 01:57:29;;;;;;;;;;;14.10;99.90;;;;;;5106995;28;19928;-90
2022/10/28 01:59:55;;;;;;;;;;;14.10;99.90;;;;;;5084062;28;19924;-90
2022/10/28 02:02:20;;;;;;;;;;;13.40;99.90;;;;;;5062312;28;19928;-90
2022/10/28 02:04:46;;;;;;;;;;;14.00;99.90;;;;;;5072967;28;19970;-90
2022/10/28 02:07:12;;;;;;;;;;;14.00;99.90;;;;;;5064872;28;19982;-90
2022/10/28 02:09:40;;;;;;;;;;;14.00;99.90;;;;;;5083069;28;20311;-91
2022/10/28 02:12:08;;;;;;;;;;;14.00;99.90;;;;;;5083136;28;19924;-90
2022/10/28 02:14:40;;;;;;;;;;;13.90;99.90;;;;;;5078651;28;19931;-90
2022/10/28 02:17:16;;;;;;;;;;;14.00;99.90;;;;;;5092492;28;19965;-91
2022/10/28 02:19:51;;;;;;;;;;;13.90;99.90;;;;;;5075761;28;20064;-90
2022/10/28 02:22:20;;;;;;;;;;;14.00;99.90;;;;;;5075308;28;19972;-91
2022/10/28 02:24:46;;;;;;;;;;;13.80;99.90;;;;;;5070269;28;20334;-90
2022/10/28 02:27:16;;;;;;;;;;;13.80;99.90;;;;;;5072455;28;19935;-91
2022/10/28 02:29:52;;;;;;;;;;;13.80;99.90;;;;;;5075119;28;19973;-90
2022/10/28 02:32:26;;;;;;;;;;;13.70;99.90;;;;;;5064895;28;19925;-91
2022/10/28 02:35:01;;;;;;;;;;;13.70;99.90;;;;;;5080001;28;19960;-91
2022/10/28 02:37:28;;;;;;;;;;;13.60;99.90;;;;;;5076660;28;19924;-89
2022/10/28 02:39:56;;;;;;;;;;;13.30;99.90;;;;;;5071075;28;20380;-90
2022/10/28 02:42:35;;;;;;;;;;;13.50;99.90;;;;;;5075542;28;19926;-90
2022/10/28 02:45:15;;;;;;;;;;;13.50;99.90;;;;;;5095347;28;20287;-91
2022/10/28 02:47:42;;;;;;;;;;;13.50;99.90;;;;;;5076441;28;19997;-89
2022/10/28 02:50:11;;;;;;;;;;;13.40;99.90;;;;;;5075840;28;19924;-90
2022/10/28 02:52:47;;;;;;;;;;;14.90;99.90;;;;;;5068695;28;20284;-90
2022/10/28 02:55:12;;;;;;;;;;;13.40;99.90;;;;;;5073146;28;19924;-90
2022/10/28 02:57:40;;;;;;;;;;;13.40;99.90;;;;;;5072669;28;19925;-90
2022/10/28 03:00:08;;;;;;;;;;;13.40;99.90;;;;;;5080477;28;19924;-90
2022/10/28 03:02:34;;;;;;;;;;;13.30;99.90;;;;;;5075583;28;19988;-90
2022/10/28 03:05:02;;;;;;;;;;;13.30;99.90;;;;;;5070732;28;19931;-90
2022/10/28 03:07:28;;;;;;;;;;;13.20;99.90;;;;;;5075525;28;20406;-89
2022/10/28 03:09:53;;;;;;;;;;;13.30;99.90;;;;;;5076431;28;19924;-89
2022/10/28 03:12:21;;;;;;;;;;;13.20;99.90;;;;;;5082228;28;20315;-90
2022/10/28 03:14:47;;;;;;;;;;;13.20;99.90;;;;;;5101980;28;20586;-90
2022/10/28 03:17:22;;;;;;;;;;;13.20;99.90;;;;;;5080443;28;19924;-90
2022/10/28 03:19:47;;;;;;;;;;;13.20;99.90;;;;;;5074568;28;20005;-90
2022/10/28 03:22:13;;;;;;;;;;;13.20;99.90;;;;;;5095684;28;20433;-89
2022/10/28 03:24:41;;;;;;;;;;;13.10;99.90;;;;;;5084975;28;19931;-90
2022/10/28 03:27:07;;;;;;;;;;;13.30;99.90;;;;;;5078331;28;20441;-90
2022/10/28 03:29:32;;;;;;;;;;;13.10;99.90;;;;;;5086720;28;19963;-90
2022/10/28 03:32:03;;;;;;;;;;;13.20;99.90;;;;;;5066835;28;19946;-90
2022/10/28 03:34:31;;;;;;;;;;;13.40;99.90;;;;;;5093933;28;19931;-88
2022/10/28 03:37:01;;;;;;;;;;;13.10;99.90;;;;;;5081751;28;19928;-90
2022/10/28 03:39:27;;;;;;;;;;;13.30;99.90;;;;;;5081846;28;19928;-90
2022/10/28 03:41:53;;;;;;;;;;;13.20;99.90;;;;;;5080606;28;19924;-90
2022/10/28 03:44:21;;;;;;;;;;;13.20;99.90;;;;;;5080708;28;19934;-90
2022/10/28 03:46:49;;;;;;;;;;;12.90;99.90;;;;;;5078350;28;19932;-90
2022/10/28 03:49:17;;;;;;;;;;;13.20;99.90;;;;;;5078052;28;19924;-90
2022/10/28 03:51:43;;;;;;;;;;;13.30;99.90;;;;;;5077956;28;19966;-91
2022/10/28 03:54:19;;;;;;;;;;;;;;;;;;;;;
2022/10/28 03:56:44;;;;;;;;;;;13.30;99.90;;;;;;5094057;28;19924;-91
2022/10/28 03:59:12;;;;;;;;;;;13.10;99.90;;;;;;5077609;28;20014;-90
2022/10/28 04:01:40;;;;;;;;;;;13.30;99.90;;;;;;5077768;28;19924;-89
2022/10/28 04:04:06;;;;;;;;;;;13.10;99.90;;;;;;5062278;28;19924;-91
2022/10/28 04:06:32;;;;;;;;;;;13.10;99.90;;;;;;5078003;28;19973;-90
2022/10/28 04:08:58;;;;;;;;;;;13.00;99.90;;;;;;5079781;28;19923;-90
2022/10/28 04:11:23;;;;;;;;;;;12.50;99.90;;;;;;5063808;28;19942;-90
2022/10/28 04:13:51;;;;;;;;;;;13.00;99.90;;;;;;5092437;28;19944;-90
2022/10/28 04:16:17;;;;;;;;;;;13.00;99.90;;;;;;5084154;28;19928;-90
2022/10/28 04:18:45;;;;;;;;;;;13.50;99.90;;;;;;5086533;28;20104;-90
2022/10/28 04:21:11;;;;;;;;;;;12.90;99.90;;;;;;5089456;28;20329;-90
2022/10/28 04:23:36;;;;;;;;;;;12.90;99.90;;;;;;5083442;28;20014;-91
2022/10/28 04:26:02;;;;;;;;;;;13.00;99.90;;;;;;5079937;28;19934;-90
2022/10/28 04:28:28;;;;;;;;;;;12.90;99.90;;;;;;5072792;28;20008;-91
2022/10/28 04:30:53;;;;;;;;;;;11.70;99.90;;;;;;5076321;28;19951;-89
2022/10/28 04:33:22;;;;;;;;;;;12.90;99.90;;;;;;5083624;28;20400;-90
2022/10/28 04:35:48;;;;;;;;;;;11.90;99.90;;;;;;5062164;28;20363;-89
2022/10/28 04:38:14;;;;;;;;;;;12.90;99.90;;;;;;5079012;28;19924;-90
2022/10/28 04:40:40;;;;;;;;;;;12.90;99.90;;;;;;5089450;28;19927;-91
2022/10/28 04:43:05;;;;;;;;;;;12.80;99.90;;;;;;5082288;28;20449;-91
2022/10/28 04:45:31;;;;;;;;;;;12.90;99.90;;;;;;5095475;28;19924;-91
2022/10/28 04:48:02;;;;;;;;;;;12.80;99.90;;;;;;5080283;28;19924;-90
2022/10/28 04:50:28;;;;;;;;;;;12.80;99.90;;;;;;5088530;28;20014;-90
2022/10/28 04:52:53;;;;;;;;;;;12.80;99.90;;;;;;5080811;28;20014;-90
2022/10/28 04:55:22;;;;;;;;;;;13.00;99.90;;;;;;5083805;28;19973;-90
2022/10/28 04:57:57;;;;;;;;;;;13.00;99.90;;;;;;5078648;28;19928;-90
2022/10/28 05:00:24;;;;;;;;;;;13.00;99.90;;;;;;5079837;28;19932;-90
2022/10/28 05:02:49;;;;;;;;;;;12.80;99.90;;;;;;5087153;28;20405;-90
2022/10/28 05:05:17;;;;;;;;;;;12.90;99.90;;;;;;5079501;28;19928;-90
2022/10/28 05:07:43;;;;;;;;;;;12.90;99.90;;;;;;5095149;28;20379;-90
2022/10/28 05:10:12;;;;;;;;;;;12.80;99.90;;;;;;5073412;28;19973;-90
2022/10/28 05:12:41;;;;;;;;;;;13.10;99.90;;;;;;5078747;28;20011;-91
2022/10/28 05:15:08;;;;;;;;;;;13.10;99.90;;;;;;5086126;28;19976;-90
2022/10/28 05:17:33;;;;;;;;;;;12.80;99.90;;;;;;5096749;28;19951;-89
2022/10/28 05:19:59;;;;;;;;;;;13.00;99.90;;;;;;5097475;28;19924;-89
2022/10/28 05:22:24;;;;;;;;;;;12.80;99.90;;;;;;5091841;28;19935;-90
2022/10/28 05:24:50;;;;;;;;;;;12.80;99.90;;;;;;5078184;28;19928;-90
2022/10/28 05:27:16;;;;;;;;;;;12.80;99.90;;;;;;5106297;28;20015;-90
2022/10/28 05:29:41;;;;;;;;;;;11.60;99.90;;;;;;5075430;28;20635;-90
2022/10/28 05:32:07;;;;;;;;;;;12.70;99.90;;;;;;5074068;28;19951;-89
2022/10/28 05:34:35;;;;;;;;;;;12.70;99.90;;;;;;5091283;28;19931;-90
2022/10/28 05:37:03;;;;;;;;;;;12.70;99.90;;;;;;5073164;28;19924;-90
2022/10/28 05:39:31;;;;;;;;;;;12.70;99.90;;;;;;5076945;28;19977;-91
2022/10/28 05:41:59;;;;;;;;;;;12.70;99.90;;;;;;5073808;28;21104;-90
2022/10/28 05:44:50;;;;;;;;;;;12.10;99.90;;;;;;5077474;28;19959;-92
2022/10/28 05:47:29;;;;;;;;;;;;;;;;;;;;;
2022/10/28 05:49:59;;;;;;;;;;;12.70;99.90;;;;;;5092846;28;20287;-92
2022/10/28 05:52:24;;;;;;;;;;;13.40;99.90;;;;;;5068692;28;19932;-91
2022/10/28 05:54:50;;;;;;;;;;;12.60;99.90;;;;;;5074746;28;19994;-91
2022/10/28 05:57:16;;;;;;;;;;;12.60;99.90;;;;;;5087958;28;19931;-94
2022/10/28 05:59:51;;;;;;;;;;;13.60;99.90;;;;;;5078757;28;19977;-90
2022/10/28 06:02:19;;;;;;;;;;;11.20;99.90;;;;;;5096776;28;19924;-90
2022/10/28 06:05:08;;;;;;;;;;;12.60;99.90;;;;;;5080326;28;19942;-91
2022/10/28 06:10:38;;;;;;;;;;;12.50;99.90;;;;;;5087009;28;20094;-90
2022/10/28 06:13:04;;;;;;;;;;;12.50;99.90;;;;;;5087351;28;19924;-88
2022/10/28 06:15:35;;;;;;;;;;;12.50;99.90;;;;;;5078428;28;19931;-88
2022/10/28 06:18:03;;;;;;;;;;;12.50;99.90;;;;;;5059369;28;19925;-89
2022/10/28 06:20:29;;;;;;;;;;;11.30;99.90;;;;;;5081408;28;19924;-88
2022/10/28 06:22:57;;;;;;;;;;;12.50;99.90;;;;;;5081454;28;19935;-87
2022/10/28 06:25:31;;;;;;;;;;;12.50;99.90;;;;;;5080121;28;19981;-88
2022/10/28 06:27:57;;;;;;;;;;;12.50;99.90;;;;;;5082720;28;19930;-88
2022/10/28 06:30:26;;;;;;;;;;;12.40;99.90;;;;;;5087459;28;19930;-86
2022/10/28 06:32:54;;;;;;;;;;;12.40;99.90;;;;;;5068346;28;19928;-87
2022/10/28 06:35:19;;;;;;;;;;;12.50;99.90;;;;;;5077940;28;19969;-87
2022/10/28 06:37:49;;;;;;;;;;;12.40;99.90;;;;;;5073809;28;19924;-90
2022/10/28 06:40:35;;;;;;;;;;;12.60;99.90;;;;;;5073771;28;20051;-89
2022/10/28 06:43:05;;;;;;;;;;;12.50;99.90;;;;;;5080247;28;19924;-88
2022/10/28 06:45:31;;;;;;;;;;;12.50;99.90;;;;;;5092186;28;19928;-87
2022/10/28 06:48:15;;;;;;;;;;;12.40;99.90;;;;;;5079056;28;19965;-90
2022/10/28 06:50:45;;;;;;;;;;;12.40;99.90;;;;;;5069081;28;20329;-89
2022/10/28 06:53:13;;;;;;;;;;;12.70;99.90;;;;;;5077734;28;19947;-88
2022/10/28 06:55:47;;;;;;;;;;;12.80;99.90;;;;;;5073491;28;20378;-90
2022/10/28 06:58:20;;;;;;;;;;;12.80;99.90;;;;;;5056141;28;20471;-88
2022/10/28 07:00:46;;;;;;;;;;;12.60;99.90;;;;;;5083940;28;20417;-89
2022/10/28 07:03:14;;;;;;;;;;;12.60;99.90;;;;;;5076078;28;20007;-91
2022/10/28 07:05:40;;;;;;;;;;;12.70;99.90;;;;;;5097136;28;19928;-89
2022/10/28 07:08:16;;;;;;;;;;;12.80;99.90;;;;;;5071887;28;20295;-89
2022/10/28 07:10:41;;;;;;;;;;;12.70;99.90;;;;;;5079298;28;20279;-90
2022/10/28 07:13:10;;;;;;;;;;;12.80;99.90;;;;;;5081169;28;20012;-88
2022/10/28 07:15:35;;;;;;;;;;;11.60;99.90;;;;;;5081808;28;19928;-87
2022/10/28 07:18:01;;;;;;;;;;;12.70;99.90;;;;;;5052749;28;20003;-86
2022/10/28 07:20:28;;;;;;;;;;;12.90;99.90;;;;;;5088433;28;19924;-87
2022/10/28 07:23:00;;;;;;;;;;;12.80;99.90;;;;;;5072555;28;20303;-87
2022/10/28 07:25:29;;;;;;;;;;;12.90;99.90;;;;;;5064692;28;19949;-87
2022/10/28 07:27:56;;;;;;;;;;;12.90;99.90;;;;;;5078703;28;19928;-87
2022/10/28 07:30:21;;;;;;;;;;;13.00;99.90;;;;;;5080443;28;19938;-87
2022/10/28 07:32:52;;;;;;;;;;;13.00;99.90;;;;;;5082704;28;19928;-89
2022/10/28 07:35:18;;;;;;;;;;;13.00;99.90;;;;;;5078448;28;20385;-87
2022/10/28 07:37:46;;;;;;;;;;;13.10;99.90;;;;;;5081233;28;19928;-87
2022/10/28 07:40:12;;;;;;;;;;;13.10;99.90;;;;;;5075090;28;19978;-87
2022/10/28 07:42:43;;;;;;;;;;;13.10;99.90;;;;;;5095076;28;19924;-89
2022/10/28 07:45:08;;;;;;;;;;;13.30;99.90;;;;;;5077951;28;20272;-88
2022/10/28 07:47:34;;;;;;;;;;;13.30;99.90;;;;;;5079902;28;19931;-88
2022/10/28 07:50:05;;;;;;;;;;;13.30;99.90;;;;;;5075567;28;19953;-89
2022/10/28 07:52:32;;;;;;;;;;;14.10;99.90;;;;;;5063019;28;20296;-88
2022/10/28 07:54:57;;;;;;;;;;;13.50;99.90;;;;;;5097500;28;20432;-90
2022/10/28 07:57:25;;;;;;;;;;;13.70;99.90;;;;;;5079945;28;20189;-88
2022/10/28 07:59:53;;;;;;;;;;;13.70;99.90;;;;;;5078035;28;19931;-89
2022/10/28 08:02:23;;;;;;;;;;;13.70;99.90;;;;;;5078099;28;19932;-89
2022/10/28 08:04:55;;;;;;;;;;;13.90;99.90;;;;;;5077009;28;19924;-89
2022/10/28 08:07:23;;;;;;;;;;;14.00;99.90;;;;;;5076703;28;19924;-89
2022/10/28 08:09:50;;;;;;;;;;;14.00;99.90;;;;;;5071490;28;19928;-88
2022/10/28 08:12:16;;;;;;;;;;;14.00;99.90;;;;;;5077291;28;20371;-89
2022/10/28 08:14:42;;;;;;;;;;;14.10;99.90;;;;;;5074719;28;19967;-89
2022/10/28 08:17:07;;;;;;;;;;;14.10;99.90;;;;;;5102178;28;19982;-88
2022/10/28 08:19:33;;;;;;;;;;;14.20;99.90;;;;;;5064425;28;19947;-87
2022/10/28 08:22:01;;;;;;;;;;;14.30;99.90;;;;;;5076508;28;19974;-89
2022/10/28 08:24:29;;;;;;;;;;;14.40;99.90;;;;;;5071983;28;19923;-89
2022/10/28 08:26:55;;;;;;;;;;;14.60;99.90;;;;;;5079029;28;19969;-89
2022/10/28 08:29:23;;;;;;;;;;;14.40;99.90;;;;;;5067588;28;20007;-88
2022/10/28 08:31:48;;;;;;;;;;;14.40;99.90;;;;;;5077508;28;19931;-88
2022/10/28 08:34:14;;;;;;;;;;;14.50;99.90;;;;;;5078776;28;20287;-88
2022/10/28 08:36:40;;;;;;;;;;;14.50;99.90;;;;;;5092322;28;19928;-88
2022/10/28 08:39:05;;;;;;;;;;;14.60;99.90;;;;;;5057243;28;19928;-87
2022/10/28 08:41:46;;;;;;;;;;;14.70;99.90;;;;;;5082784;28;20290;-88
2022/10/28 08:44:30;;;;;;;;;;;14.80;99.90;;;;;;5074314;28;19925;-86
2022/10/28 08:46:56;;;;;;;;;;;14.90;99.90;;;;;;5076204;28;20303;-88
2022/10/28 08:49:23;;;;;;;;;;;15.00;99.90;;;;;;5076188;28;19924;-87
2022/10/28 08:52:05;;;;;;;;;;;15.10;99.90;;;;;;5086506;28;19951;-88
2022/10/28 08:54:57;;;;;;;;;;;15.20;99.90;;;;;;5084650;28;19928;-88
2022/10/28 08:57:43;;;;;;;;;;;15.30;99.90;;;;;;5073917;28;19976;-87
2022/10/28 09:00:20;;;;;;;;;;;15.30;99.90;;;;;;5076112;28;20233;-89
2022/10/28 09:02:48;;;;;;;;;;;15.40;99.90;;;;;;5076734;28;19929;-88
2022/10/28 09:05:18;;;;;;;;;;;15.50;99.90;;;;;;5093465;28;19924;-89
2022/10/28 09:07:44;;;;;;;;;;;15.60;99.90;;;;;;5074065;28;20311;-88
2022/10/28 09:10:12;;;;;;;;;;;14.20;99.90;;;;;;5078356;28;19924;-88
2022/10/28 09:12:49;;;;;;;;;;;14.50;99.90;;;;;;5080017;28;19939;-89
2022/10/28 09:15:23;;;;;;;;;;;15.70;99.90;;;;;;5071308;28;19923;-88
2022/10/28 09:17:51;;;;;;;;;;;15.70;99.90;;;;;;5083683;28;19935;-87
2022/10/28 09:20:29;;;;;;;;;;;15.80;99.90;;;;;;5082594;28;19925;-89
2022/10/28 09:22:58;;;;;;;;;;;15.80;99.90;;;;;;5090791;28;19932;-87
2022/10/28 09:25:29;;;;;;;;;;;15.90;99.90;;;;;;5073967;28;20033;-87
2022/10/28 09:28:00;;;;;;;;;;;15.90;99.90;;;;;;5078325;28;19931;-88
2022/10/28 09:30:36;;;;;;;;;;;16.00;99.90;;;;;;5076292;28;19924;-87
2022/10/28 09:33:10;;;;;;;;;;;15.90;99.90;;;;;;5073985;28;19931;-88
2022/10/28 09:35:41;;;;;;;;;;;16.10;99.90;;;;;;5076989;28;20348;-88
2022/10/28 09:38:22;;;;;;;;;;;15.40;99.90;;;;;;5074098;28;19928;-87
2022/10/28 09:40:53;;;;;;;;;;;16.30;99.90;;;;;;5080142;28;19928;-90
2022/10/28 09:43:25;;;;;;;;;;;16.20;99.90;;;;;;5078972;28;19925;-87
2022/10/28 09:45:59;;;;;;;;;;;16.20;99.90;;;;;;5076621;28;19924;-89
2022/10/28 09:48:31;;;;;;;;;;;16.40;99.90;;;;;;5074102;28;20383;-87
2022/10/28 09:50:59;;;;;;;;;;;16.30;99.90;;;;;;5108313;28;20426;-88
2022/10/28 09:53:30;;;;;;;;;;;16.30;99.90;;;;;;5078220;28;20007;-86
2022/10/28 09:55:58;;;;;;;;;;;16.50;99.90;;;;;;5082578;28;19932;-88
2022/10/28 09:58:24;;;;;;;;;;;16.50;99.90;;;;;;5060755;28;19925;-89
2022/10/28 10:00:50;;;;;;;;;;;16.50;99.90;;;;;;5081866;28;19924;-88
2022/10/28 10:03:15;;;;;;;;;;;16.50;99.90;;;;;;5074824;28;19923;-87
2022/10/28 10:05:49;;;;;;;;;;;16.50;99.90;;;;;;5069956;28;19928;-87
2022/10/28 10:08:25;;;;;;;;;;;16.60;99.90;;;;;;5094206;28;19928;-86
2022/10/28 10:10:55;;;;;;;;;;;16.70;99.90;;;;;;5077109;28;19928;-87
2022/10/28 10:13:27;;;;;;;;;;;16.70;99.90;;;;;;5095530;28;20018;-87
2022/10/28 10:15:55;;;;;;;;;;;16.80;99.90;;;;;;5076163;28;19927;-86
2022/10/28 10:18:28;;;;;;;;;;;16.80;99.90;;;;;;5073747;28;19920;-87
2022/10/28 10:20:57;;;;;;;;;;;16.90;99.90;;;;;;5095356;28;20379;-86
2022/10/28 10:23:26;;;;;;;;;;;16.90;99.90;;;;;;5072714;28;19924;-86
2022/10/28 10:26:01;;;;;;;;;;;17.00;99.90;;;;;;5090258;28;20206;-87
2022/10/28 10:28:27;;;;;;;;;;;17.10;99.90;;;;;;5077634;28;19931;-87
2022/10/28 10:30:54;;;;;;;;;;;17.10;99.90;;;;;;5075183;28;19931;-87
2022/10/28 10:33:25;;;;;;;;;;;17.20;99.90;;;;;;5074831;28;19932;-87
2022/10/28 10:35:56;;;;;;;;;;;17.20;99.90;;;;;;5071397;28;19932;-87
2022/10/28 10:38:21;;;;;;;;;;;17.20;99.90;;;;;;5070029;28;19930;-87
2022/10/28 10:40:51;;;;;;;;;;;17.30;99.90;;;;;;5057837;28;20019;-87
2022/10/28 10:43:16;;;;;;;;;;;17.30;99.90;;;;;;5069717;28;19939;-86
2022/10/28 10:46:08;;;;;;;;;;;17.40;99.90;;;;;;5076125;28;20340;-87
2022/10/28 10:48:37;;;;;;;;;;;17.40;99.90;;;;;;5057235;28;20377;-87
2022/10/28 10:51:09;;;;;;;;;;;17.10;99.90;;;;;;5071378;28;19929;-87
2022/10/28 10:53:35;;;;;;;;;;;17.60;99.90;;;;;;5094975;28;19938;-87
2022/10/28 10:56:02;;;;;;;;;;;17.70;99.90;;;;;;5078647;28;20363;-86
2022/10/28 10:58:33;;;;;;;;;;;17.70;99.90;;;;;;5082137;28;19968;-88
2022/10/28 11:00:59;;;;;;;;;;;17.80;99.90;;;;;;5098501;28;19967;-87
2022/10/28 11:03:27;;;;;;;;;;;17.90;99.90;;;;;;5083799;28;19966;-86
2022/10/28 11:05:57;;;;;;;;;;;17.90;99.90;;;;;;5090072;28;19981;-88
2022/10/28 11:08:37;;;;;;;;;;;18.00;99.90;;;;;;5072968;28;19924;-88
2022/10/28 11:11:23;;;;;;;;;;;18.00;99.90;;;;;;5088190;28;19931;-87
2022/10/28 11:14:01;;;;;;;;;;;17.90;99.90;;;;;;5094285;28;19924;-88
2022/10/28 11:16:27;;;;;;;;;;;18.00;99.90;;;;;;5082934;28;19935;-87
2022/10/28 11:18:52;;;;;;;;;;;18.00;99.90;;;;;;5062693;28;19920;-87
2022/10/28 11:21:21;;;;;;;;;;;18.10;99.90;;;;;;5079431;28;19980;-88
2022/10/28 11:23:50;;;;;;;;;;;18.30;99.90;;;;;;5074057;28;19921;-88
2022/10/28 11:26:16;;;;;;;;;;;18.40;99.90;;;;;;5062604;28;19941;-88
2022/10/28 11:29:06;;;;;;;;;;;18.50;99.90;;;;;;5073455;28;19920;-88
2022/10/28 11:31:38;;;;;;;;;;;18.60;99.90;;;;;;5078816;28;20021;-87
2022/10/28 11:34:13;;;;;;;;;;;18.80;99.90;;;;;;5104038;28;19920;-87
2022/10/28 11:36:49;;;;;;;;;;;18.30;99.90;;;;;;5069941;28;20364;-88
2022/10/28 11:39:18;;;;;;;;;;;19.00;99.90;;;;;;5069500;28;19935;-87
2022/10/28 11:41:56;;;;;;;;;;;19.00;99.90;;;;;;5077348;28;19926;-87
2022/10/28 11:44:40;;;;;;;;;;;19.10;99.90;;;;;;5082459;28;19920;-87
2022/10/28 11:47:08;;;;;;;;;;;19.10;99.90;;;;;;5076246;28;20033;-87
2022/10/28 11:49:37;;;;;;;;;;;19.10;99.90;;;;;;5077581;28;20375;-87
2022/10/28 11:52:22;;;;;;;;;;;19.90;99.90;;;;;;5087623;28;20398;-87
2022/10/28 11:54:47;;;;;;;;;;;19.30;99.90;;;;;;5080618;28;19927;-87
2022/10/28 11:57:17;;;;;;;;;;;19.30;99.90;;;;;;5084145;28;19920;-87
2022/10/28 12:00:02;;;;;;;;;;;19.40;99.90;;;;;;5075283;28;19920;-87
2022/10/28 12:02:46;;;;;;;;;;;19.50;99.90;;;;;;5070424;28;19931;-88
2022/10/28 12:05:12;;;;;;;;;;;19.50;99.90;;;;;;5080299;28;19920;-86
2022/10/28 12:07:44;;;;;;;;;;;19.50;99.90;;;;;;5078642;28;19927;-88
2022/10/28 12:10:28;;;;;;;;;;;19.50;99.90;;;;;;5077432;28;19950;-88
2022/10/28 12:13:16;;;;;;;;;;;19.50;99.90;;;;;;5074250;28;19920;-89
2022/10/28 12:15:48;;;;;;;;;;;19.50;99.90;;;;;;5077007;28;20279;-89
2022/10/28 12:18:21;;;;;;;;;;;19.50;99.90;;;;;;5071299;28;19920;-88
2022/10/28 12:20:54;;;;;;;;;;;19.50;99.90;;;;;;5077636;28;19999;-88
2022/10/28 12:23:23;;;;;;;;;;;19.40;99.90;;;;;;5069710;28;19924;-89
2022/10/28 12:25:53;;;;;;;;;;;19.40;99.90;;;;;;5044523;28;20357;-87
2022/10/28 12:28:28;;;;;;;;;;;19.30;99.90;;;;;;5080255;28;19927;-89
2022/10/28 12:30:57;;;;;;;;;;;19.30;99.90;;;;;;5082545;28;20433;-88
2022/10/28 12:33:22;;;;;;;;;;;19.30;99.90;;;;;;5106874;28;20427;-88
2022/10/28 12:36:11;;;;;;;;;;;19.20;99.90;;;;;;5072966;28;20119;-88
2022/10/28 12:38:39;;;;;;;;;;;19.20;99.90;;;;;;5072826;28;19920;-89
2022/10/28 12:41:12;;;;;;;;;;;19.10;99.90;;;;;;5077633;28;20003;-88
2022/10/28 12:44:06;;;;;;;;;;;19.20;99.90;;;;;;5074171;28;20287;-88
2022/10/28 12:46:52;;;;;;;;;;;19.10;99.90;;;;;;5081709;28;20428;-88
2022/10/28 12:49:37;;;;;;;;;;;19.00;99.90;;;;;;5079987;28;20371;-88
2022/10/28 12:52:15;;;;;;;;;;;19.00;99.90;;;;;;5074729;28;20216;-89
2022/10/28 12:54:50;;;;;;;;;;;19.00;99.90;;;;;;5076832;28;20325;-89
2022/10/28 12:57:19;;;;;;;;;;;19.00;99.90;;;;;;5074850;28;19928;-89
2022/10/28 12:59:58;;;;;;;;;;;19.00;99.90;;;;;;5077179;28;19920;-89
2022/10/28 13:02:27;;;;;;;;;;;19.00;99.90;;;;;;5077047;28;19920;-89
2022/10/28 13:04:55;;;;;;;;;;;19.00;99.90;;;;;;5079184;28;20340;-88
2022/10/28 13:07:30;;;;;;;;;;;19.00;99.90;;;;;;5082314;28;19941;-90
2022/10/28 13:09:59;;;;;;;;;;;18.80;99.90;;;;;;5090417;28;19959;-89
2022/10/28 13:12:25;;;;;;;;;;;19.00;99.90;;;;;;5083383;28;19993;-88
2022/10/28 13:14:59;;;;;;;;;;;19.10;99.90;;;;;;5089075;28;20287;-89
2022/10/28 13:17:42;;;;;;;;;;;19.10;99.90;;;;;;5110950;28;20420;-88
2022/10/28 13:20:11;;;;;;;;;;;19.10;99.90;;;;;;5084083;28;20015;-88
2022/10/28 13:22:50;;;;;;;;;;;19.10;99.90;;;;;;5097722;28;20303;-88
2022/10/28 13:25:34;;;;;;;;;;;19.10;99.90;;;;;;5079793;28;19924;-88
2022/10/28 13:28:01;;;;;;;;;;;19.20;99.90;;;;;;5077591;28;19969;-88
2022/10/28 13:30:29;;;;;;;;;;;19.20;99.90;;;;;;5079276;28;19919;-88
2022/10/28 13:33:00;;;;;;;;;;;19.30;99.90;;;;;;5076335;28;20007;-89
2022/10/28 13:35:26;;;;;;;;;;;19.40;99.90;;;;;;5081513;28;19919;-88
2022/10/28 13:37:54;;;;;;;;;;;19.50;99.90;;;;;;5075616;28;20088;-89
2022/10/28 13:40:22;;;;;;;;;;;19.60;99.90;;;;;;5070592;28;20249;-88
2022/10/28 13:42:48;;;;;;;;;;;19.60;99.90;;;;;;5084831;28;19924;-89
2022/10/28 13:45:47;;;;;;;;;;;19.60;99.90;;;;;;5079334;28;19919;-88
2022/10/28 13:48:30;;;;;;;;;;;19.70;99.90;;;;;;5041948;28;20332;-89
2022/10/28 13:51:08;;;;;;;;;;;19.60;99.90;;;;;;5095770;28;19926;-89
2022/10/28 13:53:38;;;;;;;;;;;19.60;99.90;;;;;;5086292;28;19969;-88
2022/10/28 13:56:14;;;;;;;;;;;19.50;99.90;;;;;;5075160;28;19921;-89
2022/10/28 13:58:48;;;;;;;;;;;19.40;99.90;;;;;;5070756;28;19931;-88
2022/10/28 14:01:32;;;;;;;;;;;19.40;99.90;;;;;;5079230;28;19920;-90
2022/10/28 14:03:58;;;;;;;;;;;19.30;99.90;;;;;;5083033;28;19969;-88
2022/10/28 14:06:31;;;;;;;;;;;18.70;99.90;;;;;;5058911;28;19952;-89
2022/10/28 14:08:57;;;;;;;;;;;18.20;99.90;;;;;;5074842;28;19927;-88
2022/10/28 14:11:23;;;;;;;;;;;19.20;99.90;;;;;;5064864;28;19932;-87
2022/10/28 14:13:50;;;;;;;;;;;19.20;99.90;;;;;;5075060;28;20226;-88
2022/10/28 14:16:42;;;;;;;;;;;19.20;99.90;;;;;;5089050;28;19930;-88
2022/10/28 14:19:08;;;;;;;;;;;19.10;99.90;;;;;;5067662;28;19935;-88
2022/10/28 14:21:44;;;;;;;;;;;19.10;99.90;;;;;;5076787;28;19942;-89
2022/10/28 14:24:30;;;;;;;;;;;19.10;99.90;;;;;;5082674;28;20336;-87
2022/10/28 14:27:08;;;;;;;;;;;19.10;99.90;;;;;;5086542;28;19920;-88
2022/10/28 14:29:48;;;;;;;;;;;19.00;99.90;;;;;;5078679;28;19920;-88
2022/10/28 14:32:32;;;;;;;;;;;18.90;99.90;;;;;;5076441;28;19920;-87
2022/10/28 14:35:03;;;;;;;;;;;18.90;99.90;;;;;;5075474;28;20918;-88
2022/10/28 14:37:46;;;;;;;;;;;18.90;99.90;;;;;;5079516;28;19927;-89
2022/10/28 14:40:23;;;;;;;;;;;18.90;99.90;;;;;;5083307;28;19936;-88
2022/10/28 14:42:57;;;;;;;;;;;18.90;99.90;;;;;;5090473;28;19924;-88